الصفحة الرئيسية
METAR-TAF:

METAR-TAF

مطار :

Mandalay, بورما

دائرة عرض: 21-59N, خط طول: 096-06E, ارتفاع: 74 متر

مراقبة الطقس الحالي

تاريخ ووقت الإصدار 42 دقيقة قبل الساعة 07:30UTC
ريح 7 عقدة من الغرب/الشمال الغربي
درجة الحرارة 39°درجة مئوية
الرطوبة 23%
ضغط 1006 hPa
الرؤية: 7000 متر

METAR: VYMD 310730Z 29007KT 7000 NSC 39/14 Q1006 NOSIG

زمن: 14:42 (08:12 UTC)

توقعات

تاريخ ووقت الإصدار 3ساعات و 12 دقيقة قبل الساعة 05:00UTC
التوقعات صالحة من31 الساعة 06 UTC إلى 01 الساعة 06 UTC
ريح 7 عقدة من الجنوب الغربي
الرؤية: 7000 متر
غيوم قليلة على ارتفاع 2000 قدم
مؤقت
من 31 الساعة 06 UTC إلى 31 الساعة 12 UTC
ريح 10 عقدة من الجنوب تتزايد حتى 18 عقدة
الرؤية: 7000 متر
غيوم متفرقة على ارتفاع 2000 قدم

TAF: VYMD 310500Z 3106/0106 22007KT 7000 FEW020 TEMPO 3106/3112 17010G18KT 7000 SCT020

أرصاد الطقس والتوقعات من أكثر من 4000 مطار (تقارير الطقس للمطار METAR والتنبؤ بالطقس بالمطارTAF).

المحطات المتاحة هي النقط الصفراء والحمراء على الخريطة.

حرك المؤشر فوق النقطة لمعرفة اسم المحطة.

ثم انقر لمعرفة أرصاد وتوقعات الطقس.

لتغيير الخارطة: اضغط على الأزرار الخضراء مع رمز الصليب الأسود للتكبير. على الزر الأخضر مع شرطة للتصغير، أو على الأسهم الخضراء للخرائط المجاورة.


METAR-TAF: